createdAt,value
2023-03-04T00:03:40.273Z,2.10
2023-03-04T00:08:42.359Z,1.75
2023-03-04T00:13:44.402Z,1.80
2023-03-04T00:18:46.534Z,1.70
2023-03-04T00:23:48.908Z,1.75
2023-03-04T00:28:50.929Z,1.70
2023-03-04T00:33:53.007Z,1.80
2023-03-04T00:38:55.075Z,1.67
2023-03-04T00:43:57.222Z,2.67
2023-03-04T00:48:59.328Z,2.30
2023-03-04T00:54:01.397Z,1.65
2023-03-04T00:59:03.600Z,1.70
2023-03-04T01:04:06.998Z,1.55
2023-03-04T01:09:09.232Z,1.35
2023-03-04T01:14:11.640Z,2.20
2023-03-04T01:19:13.743Z,2.45
2023-03-04T01:24:15.913Z,2.97
2023-03-04T01:29:18.206Z,2.45
2023-03-04T01:34:20.331Z,2.50
2023-03-04T01:39:22.593Z,2.40
2023-03-04T01:44:26.896Z,2.00
2023-03-04T01:49:29.748Z,2.13
2023-03-04T01:54:31.898Z,2.38
2023-03-04T01:59:34.003Z,1.98
2023-03-04T02:04:36.166Z,2.03
2023-03-04T02:09:38.398Z,1.98
2023-03-04T02:14:40.603Z,1.35
2023-03-04T02:19:49.727Z,1.48
2023-03-04T02:25:06.288Z,1.55
2023-03-04T02:30:11.958Z,1.35
2023-03-04T02:35:18.300Z,1.27
2023-03-04T02:40:28.345Z,1.52
2023-03-04T02:45:44.930Z,1.27
2023-03-04T02:50:52.564Z,1.67
2023-03-04T02:55:54.627Z,1.42
2023-03-04T03:00:58.543Z,1.92
2023-03-04T03:06:02.738Z,1.50
2023-03-04T03:11:05.504Z,1.27
2023-03-04T03:16:09.062Z,1.30
2023-03-04T03:21:11.198Z,1.10
2023-03-04T03:26:13.360Z,1.13
2023-03-04T03:31:15.742Z,1.23
2023-03-04T03:36:21.916Z,1.10
2023-03-04T03:41:24.160Z,1.40
2023-03-04T03:46:27.373Z,1.30
2023-03-04T03:51:29.453Z,1.10
2023-03-04T03:56:31.473Z,1.40
2023-03-04T04:01:33.875Z,1.27
2023-03-04T04:06:35.884Z,1.20
2023-03-04T04:11:37.956Z,1.30
2023-03-04T04:16:40.507Z,1.08
2023-03-04T04:21:42.513Z,0.93
2023-03-04T04:26:44.559Z,1.10
2023-03-04T04:31:46.660Z,1.00
2023-03-04T04:36:49.188Z,1.20
2023-03-04T04:41:51.236Z,1.10
2023-03-04T04:46:53.301Z,1.10
2023-03-04T04:51:55.367Z,0.98
2023-03-04T04:56:57.409Z,0.90
2023-03-04T05:01:59.461Z,1.25
2023-03-04T05:07:01.492Z,1.20
2023-03-04T05:12:03.716Z,1.33
2023-03-04T05:17:05.830Z,0.90
2023-03-04T05:22:08.121Z,1.80
2023-03-04T05:27:10.254Z,1.30
2023-03-04T05:32:12.377Z,0.82
2023-03-04T05:37:14.449Z,1.00
2023-03-04T05:42:16.451Z,1.48
2023-03-04T05:47:18.530Z,1.30
2023-03-04T05:52:20.824Z,1.10
2023-03-04T05:57:22.867Z,1.13
2023-03-04T06:02:24.989Z,1.42
2023-03-04T06:07:27.048Z,2.25
2023-03-04T06:12:29.153Z,1.60
2023-03-04T06:17:31.198Z,1.27
2023-03-04T06:22:34.447Z,1.42
2023-03-04T06:27:36.533Z,1.35
2023-03-04T06:32:38.605Z,1.48
2023-03-04T06:37:40.931Z,1.52
2023-03-04T06:42:43.567Z,1.40
2023-03-04T06:47:45.665Z,1.48
2023-03-04T06:52:49.326Z,1.70
2023-03-04T06:57:51.433Z,1.73
2023-03-04T07:02:55.129Z,1.38
2023-03-04T07:07:57.539Z,1.80
2023-03-04T07:12:59.598Z,1.90
2023-03-04T07:18:01.652Z,2.20
2023-03-04T07:23:03.704Z,2.45
2023-03-04T07:28:05.737Z,1.90
2023-03-04T07:33:07.888Z,1.60
2023-03-04T07:38:10.297Z,1.67
2023-03-04T07:43:13.113Z,1.70
2023-03-04T07:48:15.140Z,1.70
2023-03-04T07:53:17.178Z,1.48
2023-03-04T07:58:20.007Z,1.67
2023-03-04T08:03:22.049Z,1.30
2023-03-04T08:08:24.103Z,1.58
2023-03-04T08:13:26.204Z,1.70
2023-03-04T08:18:28.629Z,1.50
2023-03-04T08:23:30.719Z,1.58
2023-03-04T08:28:32.820Z,1.27
2023-03-04T08:33:34.960Z,1.88
2023-03-04T08:38:37.182Z,1.80
2023-03-04T08:43:39.739Z,2.10
2023-03-04T08:48:41.761Z,2.90
2023-03-04T08:53:44.188Z,2.75
2023-03-04T08:58:46.311Z,3.30
2023-03-04T09:03:48.724Z,4.80
2023-03-04T09:08:51.000Z,4.43
2023-03-04T09:13:53.501Z,4.70
2023-03-04T09:18:55.626Z,5.60
2023-03-04T09:23:57.659Z,5.60
2023-03-04T09:29:01.656Z,5.40
2023-03-04T09:34:03.764Z,6.90
2023-03-04T09:39:06.269Z,6.25
2023-03-04T09:44:36.857Z,6.90
2023-03-04T09:49:42.481Z,5.95
2023-03-04T09:55:33.941Z,7.60
2023-03-04T10:00:44.014Z,6.63
2023-03-04T10:06:11.446Z,7.07
2023-03-04T10:11:15.873Z,6.75
2023-03-04T10:16:22.907Z,6.53
2023-03-04T10:21:39.072Z,7.40
2023-03-04T10:31:46.767Z,7.45
2023-03-04T10:37:07.029Z,6.78
2023-03-04T10:42:15.204Z,6.60
2023-03-04T10:47:17.601Z,7.60
2023-03-04T10:52:39.532Z,7.45
2023-03-04T10:57:44.804Z,6.53
2023-03-04T11:02:48.622Z,6.90
2023-03-04T11:07:56.296Z,6.10
2023-03-04T11:12:59.218Z,7.38
2023-03-04T11:18:05.348Z,6.80
2023-03-04T11:23:15.080Z,6.72
2023-03-04T11:28:24.305Z,5.93
2023-03-04T11:33:42.224Z,6.70
2023-03-04T11:38:53.956Z,5.40
2023-03-04T11:43:56.184Z,6.03
2023-03-04T11:49:14.259Z,5.47
2023-03-04T11:55:11.766Z,5.65
2023-03-04T12:00:22.372Z,4.85
2023-03-04T12:06:05.351Z,6.10
2023-03-04T12:11:32.156Z,5.05
2023-03-04T12:17:04.960Z,5.55
2023-03-04T12:22:19.049Z,7.85
2023-03-04T12:27:27.808Z,5.22
2023-03-04T12:32:35.079Z,7.03
2023-03-04T12:37:45.856Z,5.63
2023-03-04T12:43:30.568Z,5.10
2023-03-04T12:48:39.518Z,4.93
2023-03-04T12:54:26.221Z,5.88
2023-03-04T13:05:13.247Z,5.68
2023-03-04T13:10:18.142Z,4.97
2023-03-04T13:15:23.050Z,4.78
2023-03-04T13:20:31.051Z,4.43
2023-03-04T13:25:41.122Z,3.58
2023-03-04T13:31:06.827Z,2.97
2023-03-04T13:36:47.785Z,2.35
2023-03-04T13:41:54.546Z,3.20
2023-03-04T13:46:56.796Z,2.55
2023-03-04T13:51:59.404Z,1.95
2023-03-04T13:57:01.356Z,1.45
2023-03-04T14:02:17.083Z,2.20
2023-03-04T14:07:35.168Z,1.80
2023-03-04T14:12:50.017Z,1.70
2023-03-04T14:17:55.515Z,1.60
2023-03-04T14:22:59.784Z,2.17
2023-03-04T14:28:17.061Z,2.15
2023-03-04T14:33:23.406Z,2.20
2023-03-04T14:38:32.027Z,1.98
2023-03-04T14:43:44.830Z,1.88
2023-03-04T14:48:52.437Z,2.33
2023-03-04T14:53:57.744Z,2.20
2023-03-04T14:59:00.405Z,2.35
2023-03-04T15:04:08.428Z,2.45
2023-03-04T15:09:22.683Z,2.90
2023-03-04T15:14:43.014Z,3.20
2023-03-04T15:19:45.008Z,7.00
2023-03-04T15:24:49.623Z,5.57
2023-03-04T15:29:56.053Z,7.00
2023-03-04T15:34:59.459Z,3.63
2023-03-04T15:40:02.972Z,2.55
2023-03-04T15:45:23.436Z,2.10
2023-03-04T15:50:28.968Z,3.72
2023-03-04T15:55:32.248Z,3.80
2023-03-04T16:00:34.655Z,3.20
2023-03-04T16:05:37.988Z,1.90
2023-03-04T16:10:40.464Z,1.88
2023-03-04T16:15:43.413Z,2.47
2023-03-04T16:20:48.092Z,2.65
2023-03-04T16:25:55.369Z,2.40
2023-03-04T16:30:57.442Z,1.73
2023-03-04T16:35:59.644Z,2.22
2023-03-04T16:41:02.139Z,2.50
2023-03-04T16:46:04.303Z,4.65
2023-03-04T16:51:18.632Z,8.57
2023-03-04T16:56:20.893Z,4.38
2023-03-04T17:01:29.300Z,7.70
2023-03-04T17:06:31.466Z,4.28
2023-03-04T17:11:34.854Z,3.22
2023-03-04T17:16:36.894Z,3.20
2023-03-04T17:21:39.046Z,4.75
2023-03-04T17:26:42.686Z,3.42
2023-03-04T17:31:44.829Z,3.85
2023-03-04T17:36:47.036Z,3.47
2023-03-04T17:41:53.051Z,2.90
2023-03-04T17:46:55.238Z,2.90
2023-03-04T17:51:57.343Z,4.78
2023-03-04T17:56:59.435Z,5.88
2023-03-04T18:02:01.499Z,4.22
2023-03-04T18:07:03.534Z,3.70
2023-03-04T18:12:06.330Z,3.60
2023-03-04T18:17:08.475Z,4.55
2023-03-04T18:22:10.549Z,3.97
2023-03-04T18:27:12.602Z,4.65
2023-03-04T18:32:14.750Z,3.97
2023-03-04T18:37:16.966Z,3.42
2023-03-04T18:42:19.036Z,3.60
2023-03-04T18:47:22.408Z,4.82
2023-03-04T18:52:24.470Z,3.92
2023-03-04T18:57:26.616Z,3.15
2023-03-04T19:02:32.691Z,4.25
2023-03-04T19:07:34.757Z,3.72
2023-03-04T19:12:36.820Z,4.00
2023-03-04T19:17:39.852Z,4.30
2023-03-04T19:22:42.456Z,5.60
2023-03-04T19:27:44.537Z,4.60
2023-03-04T19:32:47.521Z,4.00
2023-03-04T19:37:49.553Z,3.42
2023-03-04T19:42:51.553Z,3.15
2023-03-04T19:47:53.603Z,4.30
2023-03-04T19:52:55.685Z,3.85
2023-03-04T19:57:57.707Z,3.20
2023-03-04T20:03:00.107Z,3.95
2023-03-04T20:08:02.823Z,3.42
2023-03-04T20:13:06.686Z,3.58
2023-03-04T20:18:08.785Z,3.30
2023-03-04T20:23:10.922Z,2.83
2023-03-04T20:28:12.938Z,3.83
2023-03-04T20:33:17.646Z,3.58
2023-03-04T20:38:19.674Z,3.40
2023-03-04T20:43:23.692Z,4.38
2023-03-04T20:48:25.717Z,4.60
2023-03-04T20:53:27.773Z,3.85
2023-03-04T20:58:29.781Z,5.00
2023-03-04T21:03:32.212Z,3.75
2023-03-04T21:08:34.745Z,3.22
2023-03-04T21:13:37.136Z,3.28
2023-03-04T21:18:39.258Z,3.65
2023-03-04T21:23:41.371Z,3.80
2023-03-04T21:28:43.836Z,3.40
2023-03-04T21:33:47.124Z,3.35
2023-03-04T21:38:49.532Z,3.70
2023-03-04T21:43:52.212Z,3.50
2023-03-04T21:48:54.253Z,4.00
2023-03-04T21:53:56.284Z,3.65
2023-03-04T21:59:00.164Z,3.17
2023-03-04T22:04:03.028Z,4.30
2023-03-04T22:09:05.643Z,3.15
2023-03-04T22:14:07.744Z,3.83
2023-03-04T22:19:09.805Z,3.70
2023-03-04T22:24:11.860Z,3.70
2023-03-04T22:29:14.097Z,3.53
2023-03-04T22:34:16.813Z,3.20
2023-03-04T22:39:23.189Z,3.72
2023-03-04T22:44:25.748Z,3.50
2023-03-04T22:49:27.853Z,2.63
2023-03-04T22:54:29.923Z,3.15
2023-03-04T22:59:32.122Z,3.13
2023-03-04T23:04:34.144Z,2.60
2023-03-04T23:09:36.312Z,2.30
2023-03-04T23:14:39.891Z,3.10
2023-03-04T23:19:41.914Z,3.35
2023-03-04T23:24:43.974Z,3.38
2023-03-04T23:29:46.058Z,3.17
2023-03-04T23:34:53.125Z,2.80
2023-03-04T23:39:55.162Z,3.22
2023-03-04T23:44:57.190Z,2.33
2023-03-04T23:50:00.315Z,2.63
2023-03-04T23:55:02.357Z,2.47
